createdAt,value
2022-10-22T00:01:00.242Z,54.47
2022-10-22T00:03:26.691Z,54.22
2022-10-22T00:05:53.031Z,49.00
2022-10-22T00:08:19.618Z,52.28
2022-10-22T00:10:46.048Z,54.25
2022-10-22T00:13:13.303Z,50.30
2022-10-22T00:15:39.720Z,58.70
2022-10-22T00:18:06.239Z,56.58
2022-10-22T00:20:32.588Z,51.90
2022-10-22T00:22:59.326Z,57.00
2022-10-22T00:25:25.788Z,54.22
2022-10-22T00:27:52.430Z,51.13
2022-10-22T00:30:19.006Z,50.80
2022-10-22T00:32:45.605Z,49.78
2022-10-22T00:35:11.973Z,52.65
2022-10-22T00:37:38.404Z,55.45
2022-10-22T00:40:05.955Z,50.80
2022-10-22T00:42:32.365Z,49.53
2022-10-22T00:45:08.348Z,52.55
2022-10-22T00:47:58.327Z,56.30
2022-10-22T00:50:31.700Z,53.13
2022-10-22T00:52:58.949Z,58.40
2022-10-22T00:55:27.028Z,48.33
2022-10-22T00:57:55.634Z,51.80
2022-10-22T01:00:22.409Z,51.45
2022-10-22T01:02:50.701Z,50.30
2022-10-22T01:05:18.136Z,56.22
2022-10-22T01:07:51.404Z,48.85
2022-10-22T01:10:44.275Z,52.90
2022-10-22T01:13:23.254Z,49.30
2022-10-22T01:16:11.070Z,49.25
2022-10-22T01:18:59.020Z,54.00
2022-10-22T01:21:36.734Z,52.80
2022-10-22T01:24:25.882Z,49.55
2022-10-22T01:27:12.492Z,52.28
2022-10-22T01:29:52.679Z,58.08
2022-10-22T01:34:53.946Z,52.25
2022-10-22T01:37:23.632Z,52.72
2022-10-22T01:39:51.728Z,51.25
2022-10-22T01:42:18.111Z,53.20
2022-10-22T01:44:44.600Z,51.05
2022-10-22T01:47:22.077Z,53.35
2022-10-22T01:50:10.474Z,52.25
2022-10-22T01:53:15.229Z,50.53
2022-10-22T01:55:55.352Z,59.30
2022-10-22T01:58:36.700Z,52.53
2022-10-22T02:01:12.804Z,53.55
2022-10-22T02:03:48.108Z,53.42
2022-10-22T02:06:19.270Z,52.88
2022-10-22T02:08:48.545Z,50.97
2022-10-22T02:11:15.845Z,49.17
2022-10-22T02:13:53.262Z,50.50
2022-10-22T02:16:28.355Z,54.65
2022-10-22T02:18:58.674Z,61.38
2022-10-22T02:21:26.464Z,60.50
2022-10-22T02:23:52.979Z,55.05
2022-10-22T02:26:32.060Z,55.42
2022-10-22T02:29:00.924Z,56.80
2022-10-22T02:31:34.127Z,55.17
2022-10-22T02:34:08.051Z,55.17
2022-10-22T02:36:35.575Z,53.03
2022-10-22T02:39:02.925Z,55.13
2022-10-22T02:41:29.799Z,54.08
2022-10-22T02:43:56.325Z,53.95
2022-10-22T02:46:24.327Z,49.95
2022-10-22T02:48:50.696Z,48.70
2022-10-22T02:51:17.082Z,45.95
2022-10-22T02:53:43.416Z,50.78
2022-10-22T02:56:09.954Z,54.95
2022-10-22T02:58:36.328Z,61.08
2022-10-22T03:01:02.790Z,52.05
2022-10-22T03:03:29.220Z,54.30
2022-10-22T03:05:55.610Z,50.90
2022-10-22T03:08:21.956Z,60.05
2022-10-22T03:10:48.312Z,60.38
2022-10-22T03:13:14.702Z,57.70
2022-10-22T03:15:41.140Z,53.80
2022-10-22T03:18:07.716Z,64.25
2022-10-22T03:20:34.143Z,50.22
2022-10-22T03:23:02.126Z,54.42
2022-10-22T03:25:31.014Z,60.80
2022-10-22T03:28:05.241Z,64.97
2022-10-22T03:30:32.275Z,63.45
2022-10-22T03:32:58.821Z,68.60
2022-10-22T03:35:25.461Z,68.53
2022-10-22T03:37:52.110Z,75.03
2022-10-22T03:40:19.085Z,75.53
2022-10-22T03:42:45.501Z,79.05
2022-10-22T03:45:12.117Z,89.65
2022-10-22T03:47:38.918Z,81.13
2022-10-22T03:50:08.787Z,82.50
2022-10-22T03:52:37.985Z,76.38
2022-10-22T03:55:05.371Z,80.05
2022-10-22T03:57:31.852Z,80.57
2022-10-22T03:59:58.270Z,91.57
2022-10-22T04:02:24.681Z,89.97
2022-10-22T04:04:51.082Z,86.32
2022-10-22T04:07:17.578Z,82.28
2022-10-22T04:09:43.942Z,86.78
2022-10-22T04:12:10.375Z,89.43
2022-10-22T04:14:36.802Z,90.28
2022-10-22T04:17:03.330Z,93.20
2022-10-22T04:19:29.714Z,88.57
2022-10-22T04:21:58.867Z,99.05
2022-10-22T04:24:26.028Z,92.10
2022-10-22T04:26:55.919Z,94.53
2022-10-22T04:29:26.004Z,101.38
2022-10-22T04:31:55.230Z,106.45
2022-10-22T04:34:21.877Z,102.53
2022-10-22T04:36:48.267Z,96.65
2022-10-22T04:39:15.138Z,110.53
2022-10-22T04:41:41.554Z,116.30
2022-10-22T04:44:11.119Z,210.55
2022-10-22T04:46:42.462Z,108.28
2022-10-22T04:49:09.181Z,83.80
2022-10-22T04:51:35.626Z,98.47
2022-10-22T04:54:02.549Z,111.57
2022-10-22T04:56:30.919Z,120.72
2022-10-22T04:58:59.815Z,167.80
2022-10-22T05:01:31.947Z,149.55
2022-10-22T05:04:00.469Z,141.23
2022-10-22T05:06:28.793Z,151.20
2022-10-22T05:08:57.829Z,162.15
2022-10-22T05:11:30.106Z,169.48
2022-10-22T05:13:58.119Z,160.27
2022-10-22T05:16:25.685Z,142.15
2022-10-22T05:18:52.213Z,132.00
2022-10-22T05:21:20.235Z,132.05
2022-10-22T05:23:48.865Z,126.85
2022-10-22T05:26:19.070Z,131.52
2022-10-22T05:31:13.888Z,103.95
2022-10-22T05:33:41.270Z,117.47
2022-10-22T05:36:10.922Z,102.97
2022-10-22T05:38:37.609Z,93.95
2022-10-22T05:41:09.973Z,81.18
2022-10-22T05:43:37.767Z,74.00
2022-10-22T05:46:09.000Z,70.25
2022-10-22T05:48:36.188Z,74.85
2022-10-22T05:51:05.466Z,68.20
2022-10-22T05:53:36.297Z,88.33
2022-10-22T05:56:04.567Z,71.30
2022-10-22T05:58:31.747Z,70.30
2022-10-22T06:01:17.563Z,75.10
2022-10-22T06:03:44.520Z,71.45
2022-10-22T06:06:24.410Z,79.40
2022-10-22T06:08:52.875Z,75.80
2022-10-22T06:11:21.954Z,74.30
2022-10-22T06:13:49.651Z,80.30
2022-10-22T06:16:16.435Z,72.72
2022-10-22T06:18:42.883Z,79.95
2022-10-22T06:21:15.115Z,70.28
2022-10-22T06:23:43.686Z,72.90
2022-10-22T06:26:11.039Z,75.97
2022-10-22T06:28:40.379Z,73.03
2022-10-22T06:31:06.900Z,71.27
2022-10-22T06:33:34.371Z,71.90
2022-10-22T06:36:11.429Z,78.15
2022-10-22T06:38:38.282Z,75.82
2022-10-22T06:41:12.433Z,67.43
2022-10-22T06:43:39.477Z,67.28
2022-10-22T06:46:09.623Z,76.97
2022-10-22T06:48:37.912Z,71.60
2022-10-22T06:51:07.349Z,69.78
2022-10-22T06:53:34.149Z,72.03
2022-10-22T06:56:06.389Z,75.25
2022-10-22T06:58:32.782Z,74.20
2022-10-22T07:01:11.174Z,71.90
2022-10-22T07:03:39.413Z,70.60
2022-10-22T07:06:08.834Z,73.72
2022-10-22T07:08:36.079Z,63.92
2022-10-22T07:11:11.589Z,69.32
2022-10-22T07:13:38.605Z,63.55
2022-10-22T07:16:06.370Z,66.53
2022-10-22T07:18:33.350Z,67.05
2022-10-22T07:21:00.105Z,61.10
2022-10-22T07:23:27.302Z,61.28
2022-10-22T07:25:53.794Z,65.45
2022-10-22T07:28:20.401Z,71.28
2022-10-22T07:30:47.590Z,66.45
2022-10-22T07:33:14.789Z,63.80
2022-10-22T07:35:41.790Z,70.75
2022-10-22T07:38:09.323Z,69.10
2022-10-22T07:40:36.283Z,71.07
2022-10-22T07:43:03.343Z,62.95
2022-10-22T07:45:29.974Z,66.55
2022-10-22T07:47:56.714Z,62.28
2022-10-22T07:50:23.196Z,64.15
2022-10-22T07:52:49.699Z,66.38
2022-10-22T07:55:16.207Z,67.45
2022-10-22T07:57:42.819Z,67.10
2022-10-22T08:00:10.026Z,66.00
2022-10-22T08:02:36.448Z,66.18
2022-10-22T08:05:02.877Z,55.88
2022-10-22T08:07:29.531Z,72.28
2022-10-22T08:09:56.082Z,61.97
2022-10-22T08:12:22.535Z,62.55
2022-10-22T08:14:49.272Z,66.90
2022-10-22T08:17:16.083Z,63.10
2022-10-22T08:19:42.461Z,65.68
2022-10-22T08:22:09.035Z,59.70
2022-10-22T08:24:35.556Z,64.90
2022-10-22T08:27:01.918Z,60.33
2022-10-22T08:29:28.476Z,56.55
2022-10-22T08:31:57.930Z,52.17
2022-10-22T08:34:24.497Z,51.22
2022-10-22T08:36:50.919Z,58.63
2022-10-22T08:39:17.368Z,61.33
2022-10-22T08:42:04.131Z,58.35
2022-10-22T08:45:14.977Z,57.92
2022-10-22T08:47:53.155Z,47.55
2022-10-22T08:50:26.930Z,44.50
2022-10-22T08:53:00.148Z,40.05
2022-10-22T08:55:26.634Z,36.17
2022-10-22T08:58:20.263Z,32.92
2022-10-22T09:00:51.482Z,35.58
2022-10-22T09:03:27.965Z,38.95
2022-10-22T09:06:08.479Z,30.33
2022-10-22T09:08:36.227Z,28.13
2022-10-22T09:11:13.971Z,31.65
2022-10-22T09:13:42.480Z,27.55
2022-10-22T09:16:18.109Z,28.48
2022-10-22T09:18:44.399Z,27.17
2022-10-22T09:21:34.418Z,27.90
2022-10-22T09:24:04.635Z,22.15
2022-10-22T09:26:36.729Z,25.15
2022-10-22T09:29:04.381Z,21.48
2022-10-22T09:31:32.997Z,21.63
2022-10-22T09:34:05.870Z,19.90
2022-10-22T09:36:32.479Z,21.13
2022-10-22T09:38:59.448Z,19.92
2022-10-22T09:41:32.203Z,21.70
2022-10-22T09:43:59.393Z,18.13
2022-10-22T09:46:29.784Z,16.27
2022-10-22T09:49:10.486Z,20.45
2022-10-22T09:51:56.914Z,19.00
2022-10-22T09:54:26.261Z,20.58
2022-10-22T09:57:05.489Z,16.02
2022-10-22T09:59:37.219Z,15.50
2022-10-22T10:02:26.614Z,17.65
2022-10-22T10:05:03.541Z,19.75
2022-10-22T10:07:35.222Z,16.98
2022-10-22T10:10:02.190Z,20.30
2022-10-22T10:12:48.632Z,15.35
2022-10-22T10:15:49.616Z,18.67
2022-10-22T10:18:32.871Z,16.73
2022-10-22T10:23:52.932Z,13.05
2022-10-22T10:26:47.611Z,16.73
2022-10-22T10:29:19.748Z,17.45
2022-10-22T10:32:13.445Z,14.57
2022-10-22T10:34:46.582Z,14.98
2022-10-22T10:37:24.923Z,20.50
2022-10-22T10:40:03.228Z,15.00
2022-10-22T10:42:57.302Z,15.27
2022-10-22T10:45:37.764Z,12.63
2022-10-22T10:48:28.838Z,17.63
2022-10-22T10:51:35.686Z,13.68
2022-10-22T10:54:35.340Z,12.30
2022-10-22T10:57:09.661Z,14.02
2022-10-22T11:00:13.964Z,17.35
2022-10-22T11:05:33.349Z,18.38
2022-10-22T11:08:04.514Z,15.00
2022-10-22T11:11:08.821Z,13.52
2022-10-22T11:13:48.369Z,14.18
2022-10-22T11:16:23.894Z,17.15
2022-10-22T11:19:50.263Z,13.70
2022-10-22T11:22:44.462Z,17.38
2022-10-22T11:25:29.133Z,12.48
2022-10-22T11:28:11.122Z,16.67
2022-10-22T11:30:40.856Z,17.33
2022-10-22T11:33:12.945Z,14.13
2022-10-22T11:35:42.618Z,14.32
2022-10-22T11:38:14.337Z,14.13
2022-10-22T11:41:02.358Z,18.45
2022-10-22T11:43:32.545Z,14.68
2022-10-22T11:46:15.869Z,16.85
2022-10-22T11:48:42.618Z,14.38
2022-10-22T11:51:34.239Z,17.85
2022-10-22T11:54:03.601Z,16.65
2022-10-22T11:56:38.573Z,14.70
2022-10-22T11:59:28.590Z,11.77
2022-10-22T12:04:23.548Z,14.05
2022-10-22T12:07:03.276Z,14.50
2022-10-22T12:09:32.857Z,15.45
2022-10-22T12:12:15.384Z,17.23
2022-10-22T12:14:57.307Z,12.90
2022-10-22T12:17:25.598Z,11.80
2022-10-22T12:20:02.765Z,11.15
2022-10-22T12:22:32.499Z,16.27
2022-10-22T12:25:06.039Z,12.57
2022-10-22T12:27:40.823Z,16.02
2022-10-22T12:30:24.589Z,12.63
2022-10-22T12:33:00.529Z,13.93
2022-10-22T12:35:29.672Z,15.00
2022-10-22T12:38:00.338Z,16.17
2022-10-22T12:40:28.248Z,18.13
2022-10-22T12:43:14.280Z,17.27
2022-10-22T12:45:43.473Z,18.70
2022-10-22T12:48:19.762Z,13.37
2022-10-22T12:50:51.110Z,16.67
2022-10-22T12:53:23.003Z,15.23
2022-10-22T12:55:51.852Z,14.68
2022-10-22T12:58:21.342Z,13.85
2022-10-22T13:00:48.474Z,15.50
2022-10-22T13:03:30.280Z,14.48
2022-10-22T13:05:56.848Z,12.43
2022-10-22T13:08:28.295Z,14.90
2022-10-22T13:10:55.920Z,15.60
2022-10-22T13:13:40.811Z,13.82
2022-10-22T13:16:24.700Z,15.48
2022-10-22T13:18:52.613Z,13.07
2022-10-22T13:21:33.549Z,15.55
2022-10-22T13:24:02.647Z,13.60
2022-10-22T13:26:34.788Z,22.47
2022-10-22T13:29:02.982Z,16.52
2022-10-22T13:31:33.566Z,18.75
2022-10-22T13:34:09.803Z,15.63
2022-10-22T13:36:38.526Z,15.25
2022-10-22T13:39:07.917Z,16.70
2022-10-22T13:44:06.397Z,17.20
2022-10-22T13:46:32.897Z,19.15
2022-10-22T13:49:00.321Z,12.57
2022-10-22T13:51:34.974Z,13.02
2022-10-22T13:54:03.407Z,12.43
2022-10-22T13:56:30.061Z,21.85
2022-10-22T13:58:56.475Z,19.88
2022-10-22T14:01:25.836Z,12.50
2022-10-22T14:03:54.997Z,16.98
2022-10-22T14:06:22.559Z,14.13
2022-10-22T14:08:55.055Z,14.85
2022-10-22T14:11:21.605Z,14.93
2022-10-22T14:13:47.970Z,13.10
2022-10-22T14:16:20.397Z,11.77
2022-10-22T14:18:48.434Z,14.25
2022-10-22T14:21:16.918Z,20.80
2022-10-22T14:23:46.357Z,10.98
2022-10-22T14:26:23.037Z,16.67
2022-10-22T14:29:08.717Z,13.63
2022-10-22T14:31:38.038Z,13.70
2022-10-22T14:34:04.463Z,17.42
2022-10-22T14:36:31.008Z,21.10
2022-10-22T14:38:57.411Z,19.90
2022-10-22T14:41:28.247Z,16.55
2022-10-22T14:43:59.486Z,14.55
2022-10-22T14:46:25.846Z,19.33
2022-10-22T14:48:52.238Z,15.85
2022-10-22T14:51:20.887Z,25.35
2022-10-22T14:53:47.814Z,17.17
2022-10-22T14:56:17.350Z,14.55
2022-10-22T14:58:43.781Z,14.38
2022-10-22T15:01:10.609Z,14.93
2022-10-22T15:03:37.536Z,14.93
2022-10-22T15:06:05.263Z,13.77
2022-10-22T15:08:31.984Z,15.45
2022-10-22T15:11:06.516Z,12.65
2022-10-22T15:13:33.614Z,16.63
2022-10-22T15:16:00.154Z,17.98
2022-10-22T15:18:27.517Z,17.02
2022-10-22T15:21:02.234Z,15.50
2022-10-22T15:23:29.154Z,20.15
2022-10-22T15:25:56.453Z,16.73
2022-10-22T15:28:24.661Z,17.30
2022-10-22T15:30:58.829Z,20.92
2022-10-22T15:33:26.583Z,13.90
2022-10-22T15:35:53.072Z,23.40
2022-10-22T15:38:20.104Z,14.93
2022-10-22T15:40:46.676Z,18.70
2022-10-22T15:43:13.177Z,15.80
2022-10-22T15:45:39.630Z,15.27
2022-10-22T15:48:06.586Z,13.98
2022-10-22T15:50:37.761Z,24.02
2022-10-22T15:53:04.377Z,15.93
2022-10-22T15:55:31.655Z,16.13
2022-10-22T15:58:00.589Z,15.30
2022-10-22T16:00:29.983Z,13.70
2022-10-22T16:02:56.378Z,18.50
2022-10-22T16:05:22.797Z,14.15
2022-10-22T16:07:49.779Z,12.35
2022-10-22T16:10:16.175Z,16.33
2022-10-22T16:12:43.406Z,16.90
2022-10-22T16:15:10.737Z,13.45
2022-10-22T16:17:37.204Z,15.05
2022-10-22T16:20:03.933Z,20.15
2022-10-22T16:22:30.460Z,22.27
2022-10-22T16:24:56.823Z,15.90
2022-10-22T16:27:23.259Z,17.52
2022-10-22T16:29:49.684Z,23.83
2022-10-22T16:32:17.826Z,15.05
2022-10-22T16:34:44.246Z,15.65
2022-10-22T16:37:10.914Z,14.45
2022-10-22T16:39:37.942Z,20.02
2022-10-22T16:42:05.271Z,16.08
2022-10-22T16:44:33.935Z,17.60
2022-10-22T16:47:00.991Z,17.17
2022-10-22T16:49:27.387Z,20.25
2022-10-22T16:51:53.906Z,16.77
2022-10-22T16:54:21.716Z,14.40
2022-10-22T16:56:48.082Z,16.75
2022-10-22T16:59:14.678Z,19.67
2022-10-22T17:01:41.614Z,17.73
2022-10-22T17:04:08.892Z,18.50
2022-10-22T17:06:35.540Z,38.17
2022-10-22T17:09:02.864Z,22.70
2022-10-22T17:11:36.281Z,25.85
2022-10-22T17:14:04.619Z,25.55
2022-10-22T17:16:42.327Z,27.63
2022-10-22T17:19:19.209Z,25.58
2022-10-22T17:21:45.752Z,31.27
2022-10-22T17:24:17.215Z,25.90
2022-10-22T17:26:47.237Z,29.85
2022-10-22T17:29:24.711Z,25.00
2022-10-22T17:31:52.557Z,25.77
2022-10-22T17:34:18.951Z,25.40
2022-10-22T17:36:45.373Z,24.35
2022-10-22T17:39:16.439Z,24.83
2022-10-22T17:41:42.820Z,24.83
2022-10-22T17:44:12.152Z,25.23
2022-10-22T17:46:39.194Z,25.67
2022-10-22T17:49:13.254Z,25.10
2022-10-22T17:51:40.619Z,25.75
2022-10-22T17:54:09.813Z,26.88
2022-10-22T17:56:37.636Z,38.05
2022-10-22T17:59:04.412Z,27.23
2022-10-22T18:01:34.048Z,29.35
2022-10-22T18:04:06.823Z,25.67
2022-10-22T18:06:33.886Z,31.67
2022-10-22T18:09:03.982Z,26.80
2022-10-22T18:11:32.429Z,26.83
2022-10-22T18:13:59.132Z,30.45
2022-10-22T18:16:26.523Z,27.13
2022-10-22T18:18:54.964Z,30.15
2022-10-22T18:21:24.106Z,27.30
2022-10-22T18:23:50.516Z,32.13
2022-10-22T18:26:19.326Z,28.30
2022-10-22T18:28:50.714Z,26.35
2022-10-22T18:31:23.322Z,30.05
2022-10-22T18:33:50.280Z,29.00
2022-10-22T18:36:19.708Z,31.27
2022-10-22T18:38:54.449Z,35.83
2022-10-22T18:41:21.106Z,32.97
2022-10-22T18:43:55.779Z,31.85
2022-10-22T18:46:23.866Z,32.00
2022-10-22T18:48:52.847Z,32.20
2022-10-22T18:51:19.831Z,34.63
2022-10-22T18:53:59.207Z,33.97
2022-10-22T18:56:38.156Z,38.70
2022-10-22T18:59:04.505Z,37.08
2022-10-22T19:01:31.011Z,41.75
2022-10-22T19:03:57.617Z,43.17
2022-10-22T19:06:36.753Z,36.75
2022-10-22T19:09:04.485Z,39.80
2022-10-22T19:11:31.655Z,33.13
2022-10-22T19:13:58.360Z,40.90
2022-10-22T19:16:24.731Z,36.40
2022-10-22T19:18:52.106Z,31.70
2022-10-22T19:21:18.672Z,30.73
2022-10-22T19:26:18.748Z,32.90
2022-10-22T19:28:45.341Z,35.00
2022-10-22T19:31:20.774Z,31.23
2022-10-22T19:33:47.884Z,35.45
2022-10-22T19:36:16.969Z,31.48
2022-10-22T19:38:45.436Z,31.27
2022-10-22T19:41:14.648Z,36.90
2022-10-22T19:43:42.715Z,30.92
2022-10-22T19:46:09.983Z,30.15
2022-10-22T19:48:37.405Z,30.58
2022-10-22T19:51:08.411Z,29.27
2022-10-22T19:53:36.616Z,37.63
2022-10-22T19:56:05.764Z,40.08
2022-10-22T19:58:32.191Z,29.02
2022-10-22T20:01:07.305Z,33.22
2022-10-22T20:03:36.171Z,32.85
2022-10-22T20:06:05.837Z,38.17
2022-10-22T20:08:35.751Z,36.75
2022-10-22T20:11:02.696Z,36.80
2022-10-22T20:13:29.277Z,35.67
2022-10-22T20:15:59.046Z,42.13
2022-10-22T20:18:28.637Z,40.95
2022-10-22T20:20:55.055Z,43.45
2022-10-22T20:23:21.544Z,37.28
2022-10-22T20:25:48.163Z,36.03
2022-10-22T20:28:15.316Z,31.60
2022-10-22T20:30:45.516Z,36.13
2022-10-22T20:35:39.156Z,34.45
2022-10-22T20:38:07.531Z,38.90
2022-10-22T20:40:34.083Z,35.78
2022-10-22T20:43:01.615Z,32.05
2022-10-22T20:45:28.085Z,37.28
2022-10-22T20:48:01.922Z,34.17
2022-10-22T20:50:31.291Z,39.20
2022-10-22T20:52:57.918Z,40.67
2022-10-22T20:55:24.604Z,38.92
2022-10-22T20:57:51.028Z,37.53
2022-10-22T21:00:17.553Z,36.08
2022-10-22T21:02:44.175Z,35.05
2022-10-22T21:05:10.715Z,39.78
2022-10-22T21:07:37.107Z,39.17
2022-10-22T21:10:04.381Z,39.33
2022-10-22T21:12:30.730Z,41.05
2022-10-22T21:14:57.144Z,40.53
2022-10-22T21:17:23.478Z,37.80
2022-10-22T21:19:49.846Z,41.20
2022-10-22T21:22:16.301Z,37.08
2022-10-22T21:24:42.653Z,37.58
2022-10-22T21:27:09.076Z,37.05
2022-10-22T21:29:35.618Z,42.50
2022-10-22T21:32:02.060Z,37.55
2022-10-22T21:34:28.505Z,38.53
2022-10-22T21:36:55.085Z,40.03
2022-10-22T21:39:21.577Z,41.38
2022-10-22T21:41:47.975Z,41.22
2022-10-22T21:44:14.359Z,45.80
2022-10-22T21:46:40.935Z,41.05
2022-10-22T21:49:07.321Z,38.75
2022-10-22T21:51:35.795Z,42.65
2022-10-22T21:54:02.225Z,39.88
2022-10-22T21:56:32.736Z,46.03
2022-10-22T21:59:00.081Z,40.53
2022-10-22T22:01:26.827Z,41.83
2022-10-22T22:03:53.429Z,49.35
2022-10-22T22:06:22.822Z,42.08
2022-10-22T22:08:52.025Z,42.53
2022-10-22T22:11:24.580Z,42.53
2022-10-22T22:13:52.417Z,43.30
2022-10-22T22:16:28.665Z,45.65
2022-10-22T22:18:57.734Z,47.13
2022-10-22T22:21:24.738Z,50.15
2022-10-22T22:23:51.253Z,47.60
2022-10-22T22:26:25.404Z,53.20
2022-10-22T22:28:55.750Z,55.55
2022-10-22T22:31:25.928Z,52.00
2022-10-22T22:33:58.286Z,45.42
2022-10-22T22:36:24.724Z,47.28
2022-10-22T22:38:55.160Z,57.47
2022-10-22T22:41:21.947Z,51.17
2022-10-22T22:43:48.366Z,53.17
2022-10-22T22:46:14.826Z,51.10
2022-10-22T22:48:41.221Z,48.88
2022-10-22T22:51:07.879Z,54.95
2022-10-22T22:53:35.060Z,52.40
2022-10-22T22:56:06.887Z,48.78
2022-10-22T22:58:33.808Z,56.35
2022-10-22T23:01:24.836Z,56.15
2022-10-22T23:03:58.310Z,49.75
2022-10-22T23:06:26.630Z,51.10
2022-10-22T23:08:54.169Z,61.38
2022-10-22T23:11:21.836Z,53.45
2022-10-22T23:13:55.772Z,56.88
2022-10-22T23:16:24.798Z,53.05
2022-10-22T23:18:53.789Z,55.58
2022-10-22T23:21:24.224Z,57.55
2022-10-22T23:23:54.575Z,56.05
2022-10-22T23:26:23.590Z,55.05
2022-10-22T23:28:50.593Z,55.40
2022-10-22T23:31:19.999Z,56.92
2022-10-22T23:33:46.680Z,67.37
2022-10-22T23:36:14.099Z,60.25
2022-10-22T23:38:41.332Z,55.95
2022-10-22T23:41:08.358Z,64.28
2022-10-22T23:43:36.192Z,60.50
2022-10-22T23:46:06.695Z,67.45
2022-10-22T23:48:33.636Z,60.97
2022-10-22T23:51:05.460Z,62.78
2022-10-22T23:53:31.853Z,55.35
2022-10-22T23:55:58.528Z,58.03
2022-10-22T23:58:24.889Z,66.95
